Etusivu
METAR-TAF:

METAR-TAF

Lentoasemat :

Monastir, Tunisia

Leveyspiiri: 35-46N, Pituuspiiri: 010-45E, korkeus merenpinnasta: 2 m

Tämänhetkinen sää

Tämä raportti tehtiin 37 minuuttia sitten, kello 17.30 UTC
Tuuli 14 kn kaakosta
Lämpötila 27°C
Kosteus 62%
Ilmanpaine 1016 hPa
Näkyvyys 10 km tai enemmän
ei pilviä alle 1500 m:ssä eikä cumulonimbus-pilviä

METAR: DTMB 181730Z 13014KT CAVOK 27/19 Q1016

Aika: 19:07 (18:07 UTC)

Sääennuste

Tämä raportti tehtiin 1 tunti ja 7 minuuttia sitten, kello 17.00 UTC
Ennuste voimassa 18. päivästä klo 18 UTC - 19. päivään klo 18 UTC
Tuuli 14 kn kaakosta
Näkyvyys 10 km tai enemmän
ei pilviä alle 1500 m:ssä eikä cumulonimbus-pilviä
Tulossa
19. päivästä klo 11 UTC - 19. päivään klo 13 UTC
Tuuli 15 kn kaakosta

TAF: DTMB 181700Z 1818/1918 14014KT CAVOK BECMG 1911/1913 13015KT

Säähavainnot ja -ennusteet yli 4000 lentoasemalta (METAR- ja TAF-raportit).

Käytössä olevat sääasemat on merkitty karttaan keltaisilla ja punaisilla pisteillä.

Aseta hiiri pisteen päälle nähdäksesi sääaseman nimen.

Klikkaa sitten nähdäksesi säähavainnot ja -ennusteet.

Kartan vaihtaminen: klikkaa mustalla rastilla varustettuja vihreitä pisteitä, niin voit zoomata sisään; viivalla varustettua vihreää pistettä, niin voit zoomata ulos tai vihreitä nuolia, niin pääset viereisille kartoille.


METAR-TAF: